x

N01 - Northeast Channel (44024) Wave Buoy

1:04pm - Mon 3rd Aug 2015 All times are ADT. -3 hours from GMT.

  • Sig Wave height 3.3ft
  • Peak Period 6s
  • Wind
    7mph
  • Sea Temp 65°f
  • Air Temp 67°f
  • Sea Pressure 1014mb
  • N01 - Northeast Channel
  • N01 - Northeast Channel

More Historic Weather Station data

Upgrade to MSW Pro to gain access to the past 30 days of data for over 8000 Wavebouys and Weather Stations around the globe.

Join Pro

Comparision Forecast

View Surf forecast
   
Mon 08/03 1:04pm 3.5ft 6s 7
mph
1014mb 65f 67f
12:04pm 3.5ft 8s 7
mph
1013.9mb 64f 67f
10:04am 4.5ft 8s 9
mph
1013.9mb 66f 67f
9:04am 3.5ft 11s 2 4 mph 1013.9mb 65f 68f
8:04am 3.5ft 8s 4
mph
1013.7mb 65f 69f
7:04am 3.5ft 8s 2
mph
1013.6mb 64f 67f
6:04am 3ft 8s 2
mph
1013.5mb 64f 65f
5:04am 3.5ft 8s 7
mph
1013.6mb 63f 64f
4:04am 4.5ft 8s 7
mph
1012.8mb 62f 64f
3:04am 4.5ft 8s 7
mph
1012.6mb 64f 64f
2:04am 3.5ft 8s 9
mph
1013.1mb 64f 65f
1:04am 3.5ft 6s 9 11 mph 1013.6mb 64f 64f
12:04am 3.5ft 8s 4 7 mph 1013.7mb 64f 65f
Sun 08/02 11:04pm 4.5ft 8s 4 7 mph 1013.5mb 66f 66f
10:04pm 5ft 8s 7 9 mph 1013.2mb 65f 66f
9:04pm 4.5ft 11s 7 9 mph 1012.9mb 65f 66f
8:04pm 4.5ft 11s 9 11 mph 1013.2mb 65f 67f
7:04pm 4ft 11s 11
mph
1012.3mb 66f 67f
6:04pm 5ft 11s 9 11 mph 1012.1mb 66f 68f
5:04pm 4.5ft 11s 9 11 mph 1012.3mb 65f 67f
4:04pm 3.5ft 8s 9 11 mph 1012mb 65f 66f
2:04pm 5ft 8s 9
mph
1011.6mb 65f 65f
1:04pm 4.5ft 6s 7 9 mph 1011.4mb 64f 64f
12:04pm 5ft 6s 9 11 mph 1011mb 65f 64f
11:04am 5ft 11s 9
mph
1011mb 65f 64f
10:04am 5.5ft 8s 11 13 mph 1010.6mb 64f 64f
9:04am 5.5ft 11s 13 16 mph 1010.1mb 65f 63f
8:04am 6ft 11s 11 13 mph 1009.5mb 64f 63f
7:04am 5.5ft 11s 11 13 mph 1009.3mb 64f 64f
6:04am 6ft 11s 11 16 mph 1008.7mb 65f 64f
5:04am 5ft 11s 16 18 mph 1008.2mb 65f 64f
4:04am 6ft 11s 16 18 mph 1008.3mb 64f 65f
3:04am 8ft 11s 18 20 mph 1008.3mb 64f 66f
2:04am 7ft 11s 16 20 mph 1008.2mb 64f 66f
1:04am  -   -  13 16 mph 1008.4mb - 67f
12:04am 7ft 11s 13 16 mph 1008.5mb 65f 67f
Sat 08/01 11:04pm 6ft 11s 16 18 mph 1008.4mb 65f 67f
10:04pm 7ft 11s 16
mph
1008.5mb 65f 67f
9:04pm  -   -  13 16 mph 1008mb - 67f
8:04pm 5ft 11s 13 16 mph 1007.6mb 66f 67f
7:04pm 5ft 8s 13 16 mph 1007.6mb 67f 67f
6:04pm 6ft 11s 13 16 mph 1007.9mb 67f 67f
5:04pm 5ft 11s 11 13 mph 1008mb 67f 67f
4:04pm 6.5ft 11s 11
mph
1008.3mb 66f 67f
3:04pm 5.5ft 8s 7 9 mph 1008.2mb 65f 67f
2:04pm 5.5ft 8s 7 9 mph 1008.2mb 66f 67f
1:04pm 5ft 8s 7
mph
1008.6mb 66f 66f
12:04pm 5ft 8s 7 9 mph 1008.3mb 65f 66f
11:04am 5.5ft 8s 7
mph
1008.4mb 64f 66f
10:04am 5.5ft 8s 4
mph
1007.7mb 65f 66f
9:04am 4.5ft 8s 4 7 mph 1007.6mb 65f 65f
8:04am 6ft 8s 4 7 mph 1007.6mb 64f 65f
7:04am 4.5ft 8s 4 7 mph 1007.5mb 65f 65f
6:04am 6ft 8s 7 9 mph 1007.3mb 65f 65f
5:04am 5ft 11s 9 11 mph 1007.4mb 65f 65f
4:04am 4.5ft 8s 11 13 mph 1007.8mb 64f 65f
3:04am 5ft 8s 11 13 mph 1007.9mb 64f 65f
2:04am 5ft 8s 13
mph
1008.2mb 64f 65f
1:04am 5ft 8s 11 13 mph 1008.5mb 64f 65f
12:04am 5ft 8s 11
mph
1008.4mb 64f 65f
Fri 07/31 11:04pm 4.5ft 6s 9 11 mph 1008.3mb 64f 65f
10:04pm 4ft 8s 9 11 mph 1008.2mb 64f 65f
7:04pm 4.5ft 6s 9 11 mph 1007.4mb 65f 66f
6:04pm 4.5ft 8s 11 13 mph 1007.3mb 65f 65f
5:04pm 4.5ft 11s 13 16 mph 1007.3mb 65f 65f
4:04pm 5ft 8s 16 18 mph 1007.3mb 64f 65f
3:04pm 5ft 11s 16 20 mph 1007.5mb 65f 65f
2:04pm 3.5ft 5s 16 18 mph 1007.4mb 65f 66f
1:04pm 5ft 11s 13 16 mph 1007.3mb 65f 66f
12:04pm 3.5ft 5s 13 16 mph 1007.5mb 64f 66f
11:04am 3.5ft 6s 11
mph
1007.7mb 64f 66f
10:04am 3.5ft 5s  -  mph - 64f -
9:04am 3ft 5s 11 13 mph 1008.1mb 63f 67f
8:04am 4ft 8s 11
mph
1008.1mb 63f 66f
7:04am 4ft 8s 11 13 mph 1007.8mb 64f 67f
6:04am 4ft 8s 9 11 mph 1008.1mb 64f 66f
5:04am 4.5ft 8s 11 13 mph 1008.5mb 64f 67f
4:04am 4.5ft 8s 13 16 mph 1009mb 64f 67f
3:04am 4.5ft 11s 16 18 mph 1009.4mb 65f 67f
2:04am 4.5ft 11s 16 18 mph 1010mb 64f 67f
1:04am 5ft 11s 16 18 mph 1010.4mb 64f 67f
12:04am 5ft 8s 16 18 mph 1010.6mb 64f 66f
Thu 07/30 11:04pm 5ft 11s  -  mph - 64f -
10:04pm 5ft 11s  -  mph - 64f -
7:04pm 4ft 8s 9 11 mph 1011.1mb 65f 66f
6:04pm 4ft 8s 11 13 mph 1010.9mb 66f 66f